Terminal Aerodrome Forecast
Issued by NWS Northern Indiana

Home | Current Version | Previous Version | Graphics & Text | Print | Product List | Glossary Off
Versions: 1 2 3 4 5 6 7 8 9 10 11 12

000
FTUS43 KIWX 220529
TAFFWA
TAF
KFWA 220529Z 2206/2306 18006KT P6SM BKN250 WS020/20040KT
     FM221300 18012G18KT P6SM BKN250
     FM222100 19012KT P6SM BKN080=

USA.gov is the U.S. government's official web portal to all federal, state and local government web resources and services.